Terminal Aerodrome Forecast
Issued by NWS Brownsville, TX

Home | Current Version | Previous Version | Text Only | Print | Product List | Glossary On
Versions: 1 2 3 4 5 6 7 8 9 10 11 12 13 14 15 16 17 18
000
FTUS44 KBRO 051136
TAFMFE
TAF
KMFE 051136Z 0512/0612 34015G26KT 5SM -RA BR OVC012
     FM051800 33015G25KT 4SM -DZ BR OVC015
     FM060000 34015KT 6SM -RA BR OVC010
     FM060500 34011KT 6SM BR OVC020 PROB30 0608/0612 5SM -RA BR
      OVC015=

USA.gov is the U.S. government's official web portal to all federal, state and local government web resources and services.